createdAt,value
2023-05-13T00:01:04.124Z,57.41
2023-05-13T00:03:32.451Z,57.76
2023-05-13T00:05:37.376Z,57.66
2023-05-13T00:07:39.093Z,57.65
2023-05-13T00:09:55.711Z,57.35
2023-05-13T00:12:29.279Z,57.75
2023-05-13T00:14:40.020Z,57.43
2023-05-13T00:19:25.375Z,57.09
2023-05-13T00:23:48.222Z,57.20
2023-05-13T00:28:58.459Z,57.97
2023-05-13T00:31:15.140Z,58.22
2023-05-13T00:33:37.336Z,58.63
2023-05-13T00:35:56.855Z,58.04
2023-05-13T00:38:01.634Z,58.61
2023-05-13T00:40:05.936Z,59.01
2023-05-13T00:42:07.667Z,58.32
2023-05-13T00:46:37.934Z,57.79
2023-05-13T00:49:18.250Z,58.64
2023-05-13T00:51:19.921Z,58.36
2023-05-13T00:53:30.942Z,58.87
2023-05-13T00:55:32.666Z,59.08
2023-05-13T00:57:34.937Z,59.67
2023-05-13T00:59:40.762Z,59.37
2023-05-13T01:01:51.909Z,58.96
2023-05-13T01:04:23.452Z,58.90
2023-05-13T01:10:09.647Z,59.59
2023-05-13T01:12:58.716Z,60.16
2023-05-13T01:15:44.485Z,59.91
2023-05-13T01:18:16.369Z,59.70
2023-05-13T01:21:08.729Z,59.20
2023-05-13T01:23:15.837Z,59.28
2023-05-13T01:25:24.291Z,59.03
2023-05-13T01:27:38.350Z,59.00
2023-05-13T01:32:40.295Z,58.90
2023-05-13T01:34:46.572Z,58.84
2023-05-13T01:37:19.667Z,58.90
2023-05-13T01:39:51.754Z,58.69
2023-05-13T01:41:54.054Z,58.96
2023-05-13T01:44:04.675Z,59.10
2023-05-13T01:46:20.742Z,58.94
2023-05-13T01:48:22.435Z,58.64
2023-05-13T01:50:28.026Z,58.39
2023-05-13T01:52:31.042Z,58.00
2023-05-13T01:54:56.808Z,58.42
2023-05-13T01:56:58.607Z,58.50
2023-05-13T02:02:07.618Z,58.02
2023-05-13T02:04:09.645Z,58.44
2023-05-13T02:06:11.414Z,58.69
2023-05-13T02:08:13.243Z,58.28
2023-05-13T02:10:39.851Z,58.47
2023-05-13T02:12:44.475Z,58.33
2023-05-13T02:14:48.751Z,57.91
2023-05-13T02:16:59.088Z,58.38
2023-05-13T02:19:00.814Z,57.91
2023-05-13T02:21:11.408Z,57.46
2023-05-13T02:23:34.380Z,58.55
2023-05-13T02:27:53.052Z,58.55
2023-05-13T02:32:26.897Z,58.95
2023-05-13T02:34:31.118Z,58.10
2023-05-13T02:36:41.722Z,58.40
2023-05-13T02:44:23.911Z,56.83
2023-05-13T02:46:34.660Z,56.63
2023-05-13T02:48:51.462Z,56.66
2023-05-13T02:50:54.518Z,56.91
2023-05-13T02:53:32.075Z,56.93
2023-05-13T02:55:33.731Z,56.30
2023-05-13T02:58:00.302Z,56.41
2023-05-13T03:00:15.441Z,56.92
2023-05-13T03:02:34.633Z,56.75
2023-05-13T03:06:51.905Z,56.39
2023-05-13T03:09:08.983Z,56.60
2023-05-13T03:11:28.413Z,56.12
2023-05-13T03:13:46.379Z,56.24
2023-05-13T03:16:08.439Z,56.50
2023-05-13T03:18:16.789Z,56.50
2023-05-13T03:20:28.193Z,55.96
2023-05-13T03:22:29.987Z,56.13
2023-05-13T03:27:09.419Z,57.37
2023-05-13T03:29:12.660Z,57.14
2023-05-13T03:31:45.754Z,57.07
2023-05-13T03:33:56.377Z,57.04
2023-05-13T03:35:58.554Z,57.43
2023-05-13T03:38:27.950Z,56.41
2023-05-13T03:40:45.554Z,56.24
2023-05-13T03:42:53.012Z,56.61
2023-05-13T03:45:17.863Z,56.31
2023-05-13T03:47:19.594Z,56.11
2023-05-13T03:49:27.097Z,55.74
2023-05-13T03:51:47.101Z,56.00
2023-05-13T03:53:57.958Z,56.84
2023-05-13T03:56:27.793Z,56.43
2023-05-13T03:58:38.713Z,57.17
2023-05-13T04:00:47.763Z,57.74
2023-05-13T04:02:52.349Z,57.92
2023-05-13T04:04:57.138Z,57.84
2023-05-13T04:06:58.971Z,58.06
2023-05-13T04:09:06.413Z,59.25
2023-05-13T04:11:17.148Z,58.64
2023-05-13T04:13:21.727Z,58.14
2023-05-13T04:15:25.832Z,59.05
2023-05-13T04:17:45.630Z,58.28
2023-05-13T04:20:37.908Z,58.56
2023-05-13T04:22:55.181Z,59.00
2023-05-13T04:25:09.865Z,59.93
2023-05-13T04:27:24.774Z,60.08
2023-05-13T04:29:32.227Z,59.32
2023-05-13T04:31:40.549Z,59.84
2023-05-13T04:34:24.772Z,59.37
2023-05-13T04:36:54.940Z,60.14
2023-05-13T04:39:18.131Z,59.89
2023-05-13T04:41:26.214Z,60.23
2023-05-13T04:43:39.741Z,60.60
2023-05-13T04:45:53.678Z,60.70
2023-05-13T04:48:13.799Z,60.80
2023-05-13T04:50:31.934Z,60.63
2023-05-13T04:52:43.230Z,61.09
2023-05-13T04:54:52.521Z,61.33
2023-05-13T04:57:00.139Z,61.60
2023-05-13T04:59:08.840Z,61.40
2023-05-13T05:01:29.796Z,61.75
2023-05-13T05:04:08.161Z,62.12
2023-05-13T05:06:34.714Z,62.65
2023-05-13T05:10:51.761Z,62.95
2023-05-13T05:12:53.647Z,62.80
2023-05-13T05:14:55.381Z,62.81
2023-05-13T05:17:00.241Z,62.90
2023-05-13T05:19:11.177Z,63.06
2023-05-13T05:21:20.890Z,63.10
2023-05-13T05:26:20.694Z,63.50
2023-05-13T05:28:28.407Z,63.26
2023-05-13T05:30:30.120Z,62.99
2023-05-13T05:33:01.183Z,63.51
2023-05-13T05:35:29.276Z,63.17
2023-05-13T05:37:40.511Z,63.35
2023-05-13T05:39:52.454Z,63.51
2023-05-13T05:42:13.740Z,63.58
2023-05-13T05:44:48.599Z,63.54
2023-05-13T05:46:57.860Z,62.95
2023-05-13T05:49:15.482Z,63.76
2023-05-13T05:51:29.179Z,63.06
2023-05-13T05:53:57.172Z,62.93
2023-05-13T05:56:26.727Z,62.55
2023-05-13T06:00:53.563Z,62.31
2023-05-13T06:02:55.255Z,61.27
2023-05-13T06:04:57.097Z,61.24
2023-05-13T06:07:03.030Z,61.62
2023-05-13T06:09:32.672Z,61.11
2023-05-13T06:11:48.334Z,60.76
2023-05-13T06:14:00.054Z,59.56
2023-05-13T06:16:14.169Z,59.73
2023-05-13T06:18:28.318Z,58.76
2023-05-13T06:20:41.017Z,57.80
2023-05-13T06:22:45.751Z,55.66
2023-05-13T06:25:00.987Z,56.68
2023-05-13T06:27:40.873Z,55.61
2023-05-13T06:29:42.441Z,53.91
2023-05-13T06:31:52.435Z,53.32
2023-05-13T06:34:25.413Z,53.00
2023-05-13T06:36:37.666Z,52.34
2023-05-13T06:39:06.345Z,52.29
2023-05-13T06:41:08.913Z,53.10
2023-05-13T06:43:14.974Z,51.97
2023-05-13T06:45:16.726Z,53.44
2023-05-13T06:47:18.690Z,53.05
2023-05-13T06:49:51.281Z,51.76
2023-05-13T06:52:29.221Z,52.15
2023-05-13T06:54:30.765Z,52.46
2023-05-13T06:56:38.167Z,51.14
2023-05-13T06:58:41.112Z,49.53
2023-05-13T07:01:04.490Z,47.46
2023-05-13T07:03:21.081Z,47.90
2023-05-13T07:05:29.990Z,49.34
2023-05-13T07:07:31.624Z,49.48
2023-05-13T07:09:33.233Z,50.97
2023-05-13T07:11:34.919Z,50.22
2023-05-13T07:15:53.349Z,49.43
2023-05-13T07:17:58.868Z,48.61
2023-05-13T07:20:21.936Z,49.03
2023-05-13T07:22:28.388Z,47.08
2023-05-13T07:24:30.046Z,48.41
2023-05-13T07:26:34.642Z,48.14
2023-05-13T07:29:05.770Z,48.51
2023-05-13T07:31:09.157Z,49.37
2023-05-13T07:33:14.592Z,47.68
2023-05-13T07:35:19.310Z,47.34
2023-05-13T07:37:21.238Z,46.20
2023-05-13T07:39:26.147Z,44.63
2023-05-13T07:41:30.927Z,47.75
2023-05-13T07:43:36.378Z,47.38
2023-05-13T07:45:42.786Z,48.20
2023-05-13T07:47:52.020Z,47.30
2023-05-13T07:49:55.941Z,49.31
2023-05-13T07:52:00.337Z,49.61
2023-05-13T07:54:09.055Z,49.06
2023-05-13T07:56:10.765Z,49.99
2023-05-13T07:58:30.685Z,47.87
2023-05-13T08:00:46.041Z,50.82
2023-05-13T08:02:52.195Z,52.20
2023-05-13T08:05:19.264Z,51.92
2023-05-13T08:07:23.804Z,51.01
2023-05-13T08:09:34.284Z,51.08
2023-05-13T08:11:37.158Z,49.14
2023-05-13T08:13:44.854Z,50.26
2023-05-13T08:15:55.464Z,47.59
2023-05-13T08:17:58.483Z,48.07
2023-05-13T08:20:03.965Z,48.91
2023-05-13T08:22:06.684Z,45.84
2023-05-13T08:24:11.519Z,48.20
2023-05-13T08:26:13.522Z,48.38
2023-05-13T08:28:25.691Z,45.99
2023-05-13T08:30:27.899Z,44.69
2023-05-13T08:32:44.501Z,40.41
2023-05-13T08:34:50.900Z,41.91
2023-05-13T08:36:52.438Z,43.48
2023-05-13T08:38:54.021Z,44.96
2023-05-13T08:40:56.612Z,45.54
2023-05-13T08:43:00.729Z,43.71
2023-05-13T08:45:05.194Z,44.65
2023-05-13T08:47:16.213Z,46.05
2023-05-13T08:49:18.273Z,44.79
2023-05-13T08:51:22.659Z,45.94
2023-05-13T08:53:26.077Z,46.44
2023-05-13T08:55:41.798Z,45.18
2023-05-13T08:57:49.631Z,43.86
2023-05-13T08:59:57.488Z,43.00
2023-05-13T09:04:18.888Z,44.41
2023-05-13T09:06:27.806Z,44.92
2023-05-13T09:08:29.846Z,46.19
2023-05-13T09:10:31.526Z,43.65
2023-05-13T09:12:58.523Z,43.55
2023-05-13T09:15:09.293Z,43.27
2023-05-13T09:17:11.113Z,45.20
2023-05-13T09:19:18.431Z,43.41
2023-05-13T09:21:30.090Z,43.24
2023-05-13T09:23:34.786Z,44.78
2023-05-13T09:25:38.434Z,43.55
2023-05-13T09:27:52.153Z,45.29
2023-05-13T09:29:59.216Z,44.52
2023-05-13T09:37:18.018Z,43.30
2023-05-13T09:39:19.825Z,42.58
2023-05-13T09:41:21.488Z,38.89
2023-05-13T09:43:24.427Z,43.70
2023-05-13T09:45:26.357Z,39.29
2023-05-13T09:47:27.983Z,39.21
2023-05-13T09:49:32.064Z,38.20
2023-05-13T09:51:34.680Z,38.41
2023-05-13T09:53:37.660Z,38.34
2023-05-13T09:55:44.847Z,37.70
2023-05-13T09:57:46.432Z,37.65
2023-05-13T09:59:48.011Z,37.42
2023-05-13T10:01:49.978Z,37.40
2023-05-13T10:03:51.710Z,36.50
2023-05-13T10:05:53.352Z,36.65
2023-05-13T10:07:55.849Z,36.24
2023-05-13T10:10:01.642Z,37.54
2023-05-13T10:12:06.706Z,37.39
2023-05-13T10:14:09.105Z,40.00
2023-05-13T10:16:11.697Z,41.67
2023-05-13T10:18:15.032Z,43.63
2023-05-13T10:20:16.942Z,41.33
2023-05-13T10:22:26.814Z,43.70
2023-05-13T10:24:29.171Z,38.21
2023-05-13T10:26:32.443Z,40.79
2023-05-13T10:28:34.342Z,40.47
2023-05-13T10:30:36.779Z,42.97
2023-05-13T10:32:39.560Z,42.82
2023-05-13T10:34:43.837Z,38.86
2023-05-13T10:37:13.309Z,36.12
2023-05-13T10:39:33.556Z,40.00
2023-05-13T10:42:11.532Z,36.17
2023-05-13T10:44:13.310Z,40.71
2023-05-13T10:46:14.982Z,40.74
2023-05-13T10:48:18.310Z,40.09
2023-05-13T10:50:24.013Z,39.69
2023-05-13T10:52:41.529Z,40.42
2023-05-13T10:54:43.119Z,40.22
2023-05-13T10:56:56.346Z,38.69
2023-05-13T10:58:59.595Z,37.97
2023-05-13T11:01:17.057Z,41.23
2023-05-13T11:03:29.681Z,41.36
2023-05-13T11:05:31.320Z,41.58
2023-05-13T11:07:38.044Z,40.18
2023-05-13T11:09:39.670Z,41.95
2023-05-13T11:11:41.560Z,35.12
2023-05-13T11:13:45.024Z,38.33
2023-05-13T11:15:50.729Z,40.84
2023-05-13T11:17:53.599Z,39.21
2023-05-13T11:19:56.503Z,41.19
2023-05-13T11:22:04.910Z,41.59
2023-05-13T11:24:07.515Z,40.64
2023-05-13T11:26:12.146Z,38.14
2023-05-13T11:28:17.699Z,40.38
2023-05-13T11:30:26.146Z,39.74
2023-05-13T11:32:53.302Z,35.17
2023-05-13T11:34:55.147Z,38.83
2023-05-13T11:37:05.954Z,35.55
2023-05-13T11:39:09.651Z,37.41
2023-05-13T11:41:12.118Z,39.91
2023-05-13T11:43:19.976Z,38.38
2023-05-13T11:45:24.502Z,35.98
2023-05-13T11:47:26.427Z,35.11
2023-05-13T11:49:36.096Z,34.08
2023-05-13T11:51:37.737Z,37.33
2023-05-13T11:53:39.278Z,37.68
2023-05-13T11:55:40.970Z,37.13
2023-05-13T11:57:42.523Z,37.11
2023-05-13T11:59:56.185Z,38.74
2023-05-13T12:02:02.751Z,36.13
2023-05-13T12:04:04.642Z,35.85
2023-05-13T12:06:06.281Z,38.54
2023-05-13T12:08:09.138Z,38.07
2023-05-13T12:10:11.313Z,35.07
2023-05-13T12:12:12.996Z,35.40
2023-05-13T12:14:14.810Z,35.98
2023-05-13T12:16:16.549Z,36.50
2023-05-13T12:18:19.499Z,35.40
2023-05-13T12:20:22.532Z,36.22
2023-05-13T12:22:24.124Z,34.08
2023-05-13T12:24:25.732Z,35.86
2023-05-13T12:26:27.429Z,34.50
2023-05-13T12:28:29.027Z,34.09
2023-05-13T12:30:33.725Z,34.55
2023-05-13T12:32:45.759Z,33.96
2023-05-13T12:34:50.991Z,34.86
2023-05-13T12:36:52.744Z,34.53
2023-05-13T12:39:00.713Z,34.89
2023-05-13T12:41:12.163Z,34.77
2023-05-13T12:43:15.533Z,34.92
2023-05-13T12:45:17.263Z,35.59
2023-05-13T12:47:18.896Z,36.38
2023-05-13T12:49:20.749Z,36.56
2023-05-13T12:51:23.793Z,35.95
2023-05-13T12:53:25.499Z,35.58
2023-05-13T12:55:27.346Z,35.08
2023-05-13T12:57:31.569Z,35.33
2023-05-13T12:59:33.946Z,34.79
2023-05-13T13:01:35.822Z,34.81
2023-05-13T13:03:37.627Z,34.28
2023-05-13T13:05:39.419Z,34.39
2023-05-13T13:07:42.458Z,34.45
2023-05-13T13:09:44.134Z,34.96
2023-05-13T13:11:47.003Z,33.12
2023-05-13T13:13:50.263Z,34.45
2023-05-13T13:15:51.826Z,33.31
2023-05-13T13:17:53.471Z,32.97
2023-05-13T13:19:55.071Z,30.17
2023-05-13T13:21:56.744Z,30.47
2023-05-13T13:23:59.672Z,30.21
2023-05-13T13:26:01.417Z,30.73
2023-05-13T13:28:03.155Z,29.87
2023-05-13T13:30:06.346Z,29.65
2023-05-13T13:32:08.357Z,28.72
2023-05-13T13:34:10.031Z,29.70
2023-05-13T13:36:11.666Z,28.34
2023-05-13T13:38:13.437Z,27.04
2023-05-13T13:40:16.423Z,29.08
2023-05-13T13:42:18.166Z,26.85
2023-05-13T13:44:19.772Z,27.75
2023-05-13T13:46:21.510Z,27.99
2023-05-13T13:48:23.211Z,27.31
2023-05-13T13:50:24.883Z,29.26
2023-05-13T13:52:26.469Z,27.74
2023-05-13T13:54:28.143Z,28.59
2023-05-13T13:56:31.210Z,27.28
2023-05-13T13:58:32.755Z,27.19
2023-05-13T14:00:34.642Z,28.04
2023-05-13T14:02:36.320Z,27.32
2023-05-13T14:04:38.125Z,28.87
2023-05-13T14:06:39.955Z,27.85
2023-05-13T14:08:41.534Z,28.58
2023-05-13T14:10:43.087Z,28.79
2023-05-13T14:12:46.058Z,30.54
2023-05-13T14:14:47.681Z,29.27
2023-05-13T14:16:49.281Z,30.47
2023-05-13T14:18:50.860Z,31.18
2023-05-13T14:20:52.522Z,29.72
2023-05-13T14:22:54.113Z,30.62
2023-05-13T14:24:55.801Z,31.59
2023-05-13T14:26:57.502Z,32.07
2023-05-13T14:29:00.489Z,31.48
2023-05-13T14:31:02.255Z,32.50
2023-05-13T14:33:04.167Z,33.75
2023-05-13T14:35:06.814Z,31.50
2023-05-13T14:37:08.816Z,32.52
2023-05-13T14:39:10.470Z,32.99
2023-05-13T14:41:12.858Z,33.53
2023-05-13T14:43:14.583Z,34.48
2023-05-13T14:45:18.749Z,34.31
2023-05-13T14:47:20.575Z,32.00
2023-05-13T14:49:22.148Z,34.12
2023-05-13T14:51:23.795Z,35.53
2023-05-13T14:53:25.367Z,36.13
2023-05-13T14:55:27.174Z,36.46
2023-05-13T14:57:28.737Z,36.46
2023-05-13T14:59:30.404Z,36.98
2023-05-13T15:01:34.585Z,37.72
2023-05-13T15:03:36.544Z,37.82
2023-05-13T15:05:38.331Z,37.82
2023-05-13T15:07:40.284Z,36.94
2023-05-13T15:09:41.851Z,36.44
2023-05-13T15:11:43.450Z,36.82
2023-05-13T15:13:45.155Z,36.47
2023-05-13T15:15:46.987Z,36.32
2023-05-13T15:17:50.064Z,35.84
2023-05-13T15:19:51.755Z,36.66
2023-05-13T15:21:53.377Z,36.77
2023-05-13T15:23:55.036Z,37.41
2023-05-13T15:25:56.641Z,37.28
2023-05-13T15:27:58.246Z,37.62
2023-05-13T15:29:59.934Z,37.12
2023-05-13T15:32:01.785Z,37.63
2023-05-13T15:34:04.726Z,37.80
2023-05-13T15:36:07.399Z,38.39
2023-05-13T15:38:09.273Z,37.84
2023-05-13T15:40:11.905Z,36.75
2023-05-13T15:42:13.657Z,37.20
2023-05-13T15:44:15.485Z,37.31
2023-05-13T15:46:17.160Z,36.99
2023-05-13T15:48:18.850Z,35.79
2023-05-13T15:50:22.302Z,35.22
2023-05-13T15:52:24.070Z,36.16
2023-05-13T15:54:25.705Z,36.12
2023-05-13T15:56:27.319Z,36.88
2023-05-13T15:58:28.920Z,35.62
2023-05-13T16:00:30.823Z,35.78
2023-05-13T16:02:32.596Z,36.53
2023-05-13T16:04:34.281Z,37.99
2023-05-13T16:06:37.274Z,39.54
2023-05-13T16:08:38.885Z,41.40
2023-05-13T16:10:40.443Z,41.89
2023-05-13T16:12:42.091Z,47.96
2023-05-13T16:14:43.644Z,48.13
2023-05-13T16:16:45.283Z,51.03
2023-05-13T16:18:47.071Z,51.52
2023-05-13T16:20:48.729Z,50.49
2023-05-13T16:22:51.669Z,50.74
2023-05-13T16:24:53.373Z,50.55
2023-05-13T16:26:54.998Z,51.01
2023-05-13T16:28:56.566Z,50.20
2023-05-13T16:30:58.770Z,50.27
2023-05-13T16:33:00.475Z,51.47
2023-05-13T16:35:02.534Z,50.63
2023-05-13T16:37:04.387Z,51.06
2023-05-13T16:39:07.384Z,51.04
2023-05-13T16:41:09.369Z,51.34
2023-05-13T16:43:10.959Z,48.04
2023-05-13T16:45:12.737Z,48.13
2023-05-13T16:47:14.343Z,49.82
2023-05-13T16:49:15.984Z,49.88
2023-05-13T16:51:17.750Z,49.81
2023-05-13T16:53:19.339Z,49.03
2023-05-13T16:55:22.580Z,47.64
2023-05-13T16:57:24.218Z,49.56
2023-05-13T16:59:27.144Z,48.77
2023-05-13T17:01:28.836Z,49.78
2023-05-13T17:03:30.636Z,50.80
2023-05-13T17:05:32.330Z,49.55
2023-05-13T17:07:33.958Z,49.66
2023-05-13T17:09:35.516Z,49.79
2023-05-13T17:11:39.108Z,50.08
2023-05-13T17:13:40.649Z,50.74
2023-05-13T17:15:42.277Z,52.16
2023-05-13T17:17:43.842Z,51.96
2023-05-13T17:19:45.517Z,51.09
2023-05-13T17:21:47.141Z,51.75
2023-05-13T17:23:49.050Z,51.62
2023-05-13T17:25:50.616Z,52.59
2023-05-13T17:27:53.651Z,52.16
2023-05-13T17:29:55.327Z,53.16
2023-05-13T17:31:56.983Z,52.36
2023-05-13T17:33:58.690Z,52.89
2023-05-13T17:36:00.425Z,53.55
2023-05-13T17:38:02.082Z,53.94
2023-05-13T17:40:04.199Z,54.29
2023-05-13T17:42:05.964Z,53.74
2023-05-13T17:44:09.008Z,54.55
2023-05-13T17:46:10.609Z,54.30
2023-05-13T17:48:12.359Z,52.27
2023-05-13T17:50:14.135Z,53.01
2023-05-13T17:52:16.290Z,54.01
2023-05-13T17:54:17.946Z,54.21
2023-05-13T17:56:19.599Z,54.04
2023-05-13T17:58:22.078Z,54.84
2023-05-13T18:00:25.987Z,54.15
2023-05-13T18:02:27.933Z,54.12
2023-05-13T18:04:29.608Z,53.66
2023-05-13T18:06:31.786Z,54.08
2023-05-13T18:08:33.435Z,53.43
2023-05-13T18:10:35.289Z,54.00
2023-05-13T18:12:36.934Z,53.10
2023-05-13T18:14:39.040Z,52.85
2023-05-13T18:16:42.084Z,53.04
2023-05-13T18:18:43.834Z,53.18
2023-05-13T18:20:45.449Z,52.54
2023-05-13T18:22:47.059Z,53.06
2023-05-13T18:24:49.928Z,53.25
2023-05-13T18:26:52.839Z,53.49
2023-05-13T18:28:54.835Z,53.31
2023-05-13T18:30:56.792Z,53.26
2023-05-13T18:32:59.818Z,53.20
2023-05-13T18:35:01.940Z,54.12
2023-05-13T18:37:03.620Z,53.55
2023-05-13T18:39:05.256Z,53.43
2023-05-13T18:41:07.419Z,53.57
2023-05-13T18:43:09.398Z,53.05
2023-05-13T18:45:11.766Z,53.25
2023-05-13T18:47:13.421Z,53.39
2023-05-13T18:49:17.187Z,53.49
2023-05-13T18:51:18.845Z,53.71
2023-05-13T18:53:20.946Z,53.96
2023-05-13T18:55:22.539Z,54.00
2023-05-13T18:57:24.642Z,53.46
2023-05-13T18:59:26.392Z,53.58
2023-05-13T19:01:28.344Z,53.68
2023-05-13T19:03:30.588Z,54.53
2023-05-13T19:05:33.662Z,54.14
2023-05-13T19:07:37.567Z,54.02
2023-05-13T19:09:39.711Z,53.61
2023-05-13T19:11:41.565Z,54.21
2023-05-13T19:13:47.215Z,54.18
2023-05-13T19:15:49.555Z,53.90
2023-05-13T19:17:53.099Z,53.76
2023-05-13T19:19:54.803Z,53.51
2023-05-13T19:21:58.195Z,53.93
2023-05-13T19:24:00.159Z,53.58
2023-05-13T19:26:01.843Z,53.49
2023-05-13T19:28:04.290Z,53.77
2023-05-13T19:30:07.196Z,53.45
2023-05-13T19:32:08.943Z,53.81
2023-05-13T19:34:10.563Z,53.88
2023-05-13T19:36:12.772Z,53.91
2023-05-13T19:38:16.665Z,53.57
2023-05-13T19:40:18.623Z,53.97
2023-05-13T19:42:20.320Z,53.67
2023-05-13T19:44:21.965Z,53.26
2023-05-13T19:46:23.746Z,53.21
2023-05-13T19:48:27.271Z,53.51
2023-05-13T19:50:29.923Z,53.35
2023-05-13T19:52:31.604Z,53.08
2023-05-13T19:54:34.971Z,52.85
2023-05-13T19:56:39.033Z,52.49
2023-05-13T19:58:41.971Z,52.46
2023-05-13T20:00:44.263Z,52.63
2023-05-13T20:02:46.059Z,52.10
2023-05-13T20:04:48.052Z,52.71
2023-05-13T20:06:49.753Z,53.60
2023-05-13T20:08:51.543Z,52.91
2023-05-13T20:10:54.902Z,53.02
2023-05-13T20:12:56.706Z,53.60
2023-05-13T20:14:58.390Z,52.92
2023-05-13T20:17:00.073Z,54.02
2023-05-13T20:19:01.871Z,53.55
2023-05-13T20:21:03.922Z,54.41
2023-05-13T20:23:05.624Z,54.08
2023-05-13T20:25:07.798Z,54.83
2023-05-13T20:27:11.043Z,54.49
2023-05-13T20:29:12.756Z,54.58
2023-05-13T20:31:14.588Z,55.29
2023-05-13T20:33:16.518Z,54.85
2023-05-13T20:35:18.254Z,55.01
2023-05-13T20:37:22.633Z,55.17
2023-05-13T20:39:25.674Z,55.90
2023-05-13T20:41:27.682Z,55.69
2023-05-13T20:43:31.652Z,55.54
2023-05-13T20:45:33.617Z,55.78
2023-05-13T20:47:35.227Z,55.50
2023-05-13T20:49:36.847Z,55.96
2023-05-13T20:51:38.844Z,55.92
2023-05-13T20:53:40.572Z,55.89
2023-05-13T20:55:45.410Z,55.78
2023-05-13T20:57:47.732Z,56.17
2023-05-13T20:59:51.013Z,55.93
2023-05-13T21:01:52.708Z,55.59
2023-05-13T21:03:54.544Z,55.66
2023-05-13T21:05:56.291Z,55.22
2023-05-13T21:08:00.250Z,55.74
2023-05-13T21:10:02.553Z,54.98
2023-05-13T21:12:05.358Z,54.66
2023-05-13T21:14:07.010Z,54.49
2023-05-13T21:16:10.374Z,54.59
2023-05-13T21:18:12.056Z,54.09
2023-05-13T21:20:13.909Z,54.03
2023-05-13T21:22:16.158Z,54.05
2023-05-13T21:24:19.726Z,54.70
2023-05-13T21:26:21.467Z,53.96
2023-05-13T21:28:23.154Z,54.57
2023-05-13T21:30:25.005Z,53.76
2023-05-13T21:32:28.306Z,54.27
2023-05-13T21:34:29.987Z,54.08
2023-05-13T21:36:31.661Z,53.58
2023-05-13T21:38:35.949Z,53.84
2023-05-13T21:40:37.821Z,54.74
2023-05-13T21:42:39.444Z,53.98
2023-05-13T21:44:41.105Z,54.00
2023-05-13T21:46:42.826Z,53.30
2023-05-13T21:48:46.370Z,53.74
2023-05-13T21:50:48.054Z,53.66
2023-05-13T21:52:49.712Z,54.18
2023-05-13T21:54:51.480Z,54.55
2023-05-13T21:56:53.148Z,55.40
2023-05-13T21:58:54.737Z,55.95
2023-05-13T22:00:56.321Z,55.96
2023-05-13T22:02:59.798Z,56.51
2023-05-13T22:05:03.240Z,56.45
2023-05-13T22:07:05.128Z,56.70
2023-05-13T22:09:06.861Z,56.97
2023-05-13T22:11:10.392Z,56.64
2023-05-13T22:13:12.056Z,57.24
2023-05-13T22:15:13.949Z,57.31
2023-05-13T22:17:15.702Z,57.22
2023-05-13T22:19:17.555Z,57.17
2023-05-13T22:21:20.536Z,57.06
2023-05-13T22:23:22.261Z,57.19
2023-05-13T22:25:23.907Z,56.73
2023-05-13T22:27:25.617Z,56.92
2023-05-13T22:29:27.248Z,56.52
2023-05-13T22:31:29.042Z,56.55
2023-05-13T22:33:30.698Z,57.54
2023-05-13T22:35:32.372Z,56.85
2023-05-13T22:37:35.268Z,56.87
2023-05-13T22:39:37.088Z,56.71
2023-05-13T22:41:38.982Z,56.16
2023-05-13T22:43:40.589Z,56.19
2023-05-13T22:45:42.502Z,56.37
2023-05-13T22:47:44.329Z,56.77
2023-05-13T22:49:46.265Z,57.30
2023-05-13T22:51:48.073Z,57.09
2023-05-13T22:53:52.512Z,57.15
2023-05-13T22:55:54.118Z,56.96
2023-05-13T22:57:55.802Z,56.85
2023-05-13T22:59:57.482Z,57.37
2023-05-13T23:01:59.253Z,57.19
2023-05-13T23:04:02.613Z,57.17
2023-05-13T23:06:04.437Z,57.25
2023-05-13T23:08:06.085Z,57.52
2023-05-13T23:10:10.276Z,57.40
2023-05-13T23:12:12.081Z,57.33
2023-05-13T23:14:13.662Z,57.73
2023-05-13T23:16:16.787Z,57.47
2023-05-13T23:18:18.550Z,57.46
2023-05-13T23:20:20.499Z,57.73
2023-05-13T23:22:22.582Z,57.49
2023-05-13T23:24:24.214Z,57.29
2023-05-13T23:26:27.184Z,57.07
2023-05-13T23:28:28.796Z,57.26
2023-05-13T23:30:30.408Z,57.28
2023-05-13T23:32:32.031Z,56.98
2023-05-13T23:34:38.542Z,56.81
2023-05-13T23:36:40.382Z,56.82
2023-05-13T23:38:42.026Z,57.13
2023-05-13T23:40:44.173Z,56.76
2023-05-13T23:42:47.091Z,57.17
2023-05-13T23:44:49.062Z,57.22
2023-05-13T23:46:52.076Z,57.78
2023-05-13T23:48:53.937Z,57.38
2023-05-13T23:50:55.751Z,57.20
2023-05-13T23:52:57.686Z,57.06
2023-05-13T23:55:00.186Z,56.91
2023-05-13T23:57:02.227Z,57.40
2023-05-13T23:59:05.400Z,57.03
